createdAt,value
2023-03-16T00:00:31.765Z,1009.81815816
2023-03-16T00:01:31.764Z,1009.7165667959999
2023-03-16T00:02:31.736Z,1009.7165667959999
2023-03-16T00:03:31.920Z,1009.6149754319999
2023-03-16T00:04:31.729Z,1009.81815816
2023-03-16T00:05:31.774Z,1009.919749524
2023-03-16T00:06:31.758Z,1009.7165667959999
2023-03-16T00:07:31.800Z,1009.919749524
2023-03-16T00:08:31.728Z,1009.7165667959999
2023-03-16T00:09:31.759Z,1009.7165667959999
2023-03-16T00:10:31.778Z,1010.0213408879999
2023-03-16T00:11:31.795Z,1009.81815816
2023-03-16T00:12:31.760Z,1009.7165667959999
2023-03-16T00:13:31.777Z,1009.81815816
2023-03-16T00:14:31.746Z,1010.0213408879999
2023-03-16T00:15:31.783Z,1009.919749524
2023-03-16T00:16:31.853Z,1010.0213408879999
2023-03-16T00:17:31.769Z,1009.919749524
2023-03-16T00:18:31.735Z,1010.122932252
2023-03-16T00:19:31.765Z,1010.224523616
2023-03-16T00:20:31.729Z,1010.122932252
2023-03-16T00:21:31.764Z,1009.7165667959999
2023-03-16T00:22:32.947Z,1010.0213408879999
2023-03-16T00:23:31.784Z,1009.919749524
2023-03-16T00:24:31.746Z,1009.81815816
2023-03-16T00:25:31.767Z,1010.122932252
2023-03-16T00:26:31.768Z,1010.0213408879999
2023-03-16T00:27:31.797Z,1010.122932252
2023-03-16T00:28:31.751Z,1010.0213408879999
2023-03-16T00:29:31.792Z,1010.0213408879999
2023-03-16T00:30:31.760Z,1010.0213408879999
2023-03-16T00:31:31.790Z,1010.3261149799999
2023-03-16T00:32:31.829Z,1010.224523616
2023-03-16T00:33:31.760Z,1010.0213408879999
2023-03-16T00:34:31.767Z,1010.0213408879999
2023-03-16T00:35:31.778Z,1010.0213408879999
2023-03-16T00:36:31.727Z,1010.224523616
2023-03-16T00:37:31.801Z,1010.224523616
2023-03-16T00:38:31.876Z,1010.122932252
2023-03-16T00:39:31.811Z,1010.3261149799999
2023-03-16T00:40:31.727Z,1010.224523616
2023-03-16T00:41:31.768Z,1010.224523616
2023-03-16T00:42:32.302Z,1010.3261149799999
2023-03-16T00:43:31.751Z,1010.224523616
2023-03-16T00:44:31.721Z,1010.3261149799999
2023-03-16T00:45:31.754Z,1010.224523616
2023-03-16T00:46:31.838Z,1010.3261149799999
2023-03-16T00:47:31.737Z,1010.122932252
2023-03-16T00:48:31.732Z,1010.122932252
2023-03-16T00:49:31.723Z,1010.3261149799999
2023-03-16T00:50:31.775Z,1010.224523616
2023-03-16T00:51:31.735Z,1010.224523616
2023-03-16T00:52:32.213Z,1010.4277063440001
2023-03-16T00:53:31.733Z,1010.224523616
2023-03-16T00:54:31.771Z,1010.3261149799999
2023-03-16T00:55:31.740Z,1010.224523616
2023-03-16T00:56:31.759Z,1010.4277063440001
2023-03-16T00:57:31.737Z,1010.122932252
2023-03-16T00:58:31.759Z,1010.3261149799999
2023-03-16T00:59:31.774Z,1010.224523616
2023-03-16T01:00:31.763Z,1010.3261149799999
2023-03-16T01:01:31.779Z,1010.5292977080001
2023-03-16T01:02:32.317Z,1010.4277063440001
2023-03-16T01:03:31.807Z,1010.5292977080001
2023-03-16T01:04:31.806Z,1010.4277063440001
2023-03-16T01:05:31.738Z,1010.4277063440001
2023-03-16T01:06:31.796Z,1010.3261149799999
2023-03-16T01:07:31.726Z,1010.4277063440001
2023-03-16T01:08:31.765Z,1010.5292977080001
2023-03-16T01:09:31.744Z,1010.3261149799999
2023-03-16T01:10:31.766Z,1010.5292977080001
2023-03-16T01:11:31.743Z,1010.3261149799999
2023-03-16T01:12:32.189Z,1010.3261149799999
2023-03-16T01:13:31.727Z,1010.630889072
2023-03-16T01:14:31.745Z,1010.630889072
2023-03-16T01:15:31.741Z,1010.4277063440001
2023-03-16T01:16:31.808Z,1010.630889072
2023-03-16T01:17:31.719Z,1010.5292977080001
2023-03-16T01:18:31.772Z,1010.630889072
2023-03-16T01:19:31.774Z,1010.7324804360001
2023-03-16T01:20:31.786Z,1010.935663164
2023-03-16T01:21:31.744Z,1010.7324804360001
2023-03-16T01:22:32.410Z,1010.7324804360001
2023-03-16T01:23:31.744Z,1010.8340718000001
2023-03-16T01:24:31.754Z,1010.7324804360001
2023-03-16T01:25:31.741Z,1010.8340718000001
2023-03-16T01:26:31.767Z,1011.0372545280001
2023-03-16T01:27:31.710Z,1010.8340718000001
2023-03-16T01:28:31.741Z,1010.935663164
2023-03-16T01:29:31.702Z,1010.8340718000001
2023-03-16T01:30:31.792Z,1010.8340718000001
2023-03-16T01:31:31.709Z,1011.0372545280001
2023-03-16T01:32:32.462Z,1011.0372545280001
2023-03-16T01:33:31.742Z,1011.0372545280001
2023-03-16T01:34:31.741Z,1010.8340718000001
2023-03-16T01:35:31.798Z,1010.8340718000001
2023-03-16T01:36:31.733Z,1011.0372545280001
2023-03-16T01:37:31.736Z,1011.1388458920001
2023-03-16T01:38:31.787Z,1011.1388458920001
2023-03-16T01:39:31.735Z,1011.0372545280001
2023-03-16T01:40:31.930Z,1011.1388458920001
2023-03-16T01:41:31.859Z,1011.0372545280001
2023-03-16T01:42:34.184Z,1011.1388458920001
2023-03-16T01:43:31.854Z,1011.1388458920001
2023-03-16T01:44:31.865Z,1011.0372545280001
2023-03-16T01:45:31.891Z,1011.0372545280001
2023-03-16T01:46:31.978Z,1011.0372545280001
2023-03-16T01:47:31.851Z,1011.1388458920001
2023-03-16T01:48:31.868Z,1011.308164832
2023-03-16T01:49:31.873Z,1011.2404372559998
2023-03-16T01:50:31.893Z,1011.308164832
2023-03-16T01:51:31.850Z,1011.2404372559998
2023-03-16T01:52:32.377Z,1011.308164832
2023-03-16T01:53:31.900Z,1011.0372545280001
2023-03-16T01:54:31.850Z,1011.2404372559998
2023-03-16T01:55:31.830Z,1011.308164832
2023-03-16T01:56:31.838Z,1011.308164832
2023-03-16T01:57:31.765Z,1011.308164832
2023-03-16T01:58:31.763Z,1011.409756196
2023-03-16T01:59:31.722Z,1011.409756196
2023-03-16T02:00:31.725Z,1011.51134756
2023-03-16T02:01:31.811Z,1011.51134756
2023-03-16T02:02:31.726Z,1011.612938924
2023-03-16T02:03:31.764Z,1011.409756196
2023-03-16T02:04:31.777Z,1011.308164832
2023-03-16T02:05:31.777Z,1011.409756196
2023-03-16T02:06:31.724Z,1011.1388458920001
2023-03-16T02:07:31.726Z,1011.51134756
2023-03-16T02:08:31.712Z,1011.409756196
2023-03-16T02:09:31.754Z,1011.51134756
2023-03-16T02:10:31.745Z,1011.409756196
2023-03-16T02:11:31.713Z,1011.409756196
2023-03-16T02:12:31.748Z,1011.612938924
2023-03-16T02:13:31.759Z,1011.51134756
2023-03-16T02:14:31.748Z,1011.612938924
2023-03-16T02:15:31.795Z,1011.612938924
2023-03-16T02:16:31.720Z,1011.51134756
2023-03-16T02:17:31.762Z,1011.7145302880001
2023-03-16T02:18:31.750Z,1011.612938924
2023-03-16T02:19:31.738Z,1011.7145302880001
2023-03-16T02:20:31.737Z,1011.51134756
2023-03-16T02:21:31.772Z,1011.7145302880001
2023-03-16T02:22:32.422Z,1011.816121652
2023-03-16T02:23:31.763Z,1011.612938924
2023-03-16T02:24:31.736Z,1011.7145302880001
2023-03-16T02:25:31.797Z,1011.7145302880001
2023-03-16T02:26:31.728Z,1011.7145302880001
2023-03-16T02:27:31.723Z,1011.7145302880001
2023-03-16T02:28:31.727Z,1011.612938924
2023-03-16T02:29:31.742Z,1011.612938924
2023-03-16T02:30:31.719Z,1011.612938924
2023-03-16T02:31:31.869Z,1011.612938924
2023-03-16T02:32:31.752Z,1011.612938924
2023-03-16T02:33:31.758Z,1011.7145302880001
2023-03-16T02:34:31.795Z,1011.7145302880001
2023-03-16T02:35:31.773Z,1011.9177130160001
2023-03-16T02:36:31.714Z,1012.0193043800001
2023-03-16T02:37:31.751Z,1011.816121652
2023-03-16T02:38:31.739Z,1011.816121652
2023-03-16T02:39:31.715Z,1011.9177130160001
2023-03-16T02:40:31.770Z,1011.816121652
2023-03-16T02:41:31.768Z,1012.0193043800001
2023-03-16T02:42:32.677Z,1012.120895744
2023-03-16T02:43:31.735Z,1012.0193043800001
2023-03-16T02:44:31.743Z,1012.120895744
2023-03-16T02:45:31.698Z,1012.120895744
2023-03-16T02:46:31.871Z,1011.9177130160001
2023-03-16T02:47:31.719Z,1012.0193043800001
2023-03-16T02:48:31.772Z,1012.120895744
2023-03-16T02:49:31.763Z,1012.120895744
2023-03-16T02:50:31.735Z,1012.120895744
2023-03-16T02:51:31.773Z,1012.0193043800001
2023-03-16T02:52:32.220Z,1011.9177130160001
2023-03-16T02:53:31.706Z,1012.120895744
2023-03-16T02:54:31.771Z,1012.120895744
2023-03-16T02:55:31.771Z,1012.324078472
2023-03-16T02:56:31.731Z,1012.0193043800001
2023-03-16T02:57:31.742Z,1012.2224871079999
2023-03-16T02:58:31.758Z,1012.324078472
2023-03-16T02:59:31.841Z,1012.0193043800001
2023-03-16T03:00:31.733Z,1012.324078472
2023-03-16T03:01:31.741Z,1012.0193043800001
2023-03-16T03:02:31.733Z,1012.2224871079999
2023-03-16T03:03:31.855Z,1012.0193043800001
2023-03-16T03:04:31.764Z,1012.2224871079999
2023-03-16T03:05:31.722Z,1012.2224871079999
2023-03-16T03:06:31.802Z,1012.324078472
2023-03-16T03:07:31.774Z,1012.324078472
2023-03-16T03:08:31.721Z,1012.120895744
2023-03-16T03:09:31.723Z,1012.4256698359999
2023-03-16T03:10:31.737Z,1012.2224871079999
2023-03-16T03:11:31.905Z,1012.2224871079999
2023-03-16T03:12:31.793Z,1012.120895744
2023-03-16T03:13:31.785Z,1012.2224871079999
2023-03-16T03:14:31.772Z,1012.324078472
2023-03-16T03:15:31.735Z,1012.0193043800001
2023-03-16T03:16:31.908Z,1012.324078472
2023-03-16T03:17:31.869Z,1012.5272611999999
2023-03-16T03:18:31.900Z,1012.324078472
2023-03-16T03:19:31.920Z,1012.7304439279999
2023-03-16T03:20:31.864Z,1012.628852564
2023-03-16T03:21:31.778Z,1012.5272611999999
2023-03-16T03:22:32.349Z,1012.4256698359999
2023-03-16T03:23:31.810Z,1012.628852564
2023-03-16T03:24:31.796Z,1012.4256698359999
2023-03-16T03:25:31.712Z,1012.628852564
2023-03-16T03:26:31.748Z,1012.628852564
2023-03-16T03:27:31.906Z,1012.5272611999999
2023-03-16T03:28:31.841Z,1012.5272611999999
2023-03-16T03:29:31.761Z,1012.628852564
2023-03-16T03:30:31.868Z,1012.628852564
2023-03-16T03:31:31.773Z,1012.628852564
2023-03-16T03:32:32.687Z,1012.933626656
2023-03-16T03:33:31.735Z,1012.628852564
2023-03-16T03:34:31.775Z,1012.628852564
2023-03-16T03:35:31.934Z,1012.628852564
2023-03-16T03:36:31.790Z,1012.4256698359999
2023-03-16T03:37:31.722Z,1012.5272611999999
2023-03-16T03:38:31.850Z,1012.7304439279999
2023-03-16T03:39:31.735Z,1012.7304439279999
2023-03-16T03:40:31.868Z,1012.8320352919999
2023-03-16T03:41:31.841Z,1012.5272611999999
2023-03-16T03:42:32.704Z,1012.933626656
2023-03-16T03:43:31.854Z,1012.7304439279999
2023-03-16T03:44:31.781Z,1012.8320352919999
2023-03-16T03:45:31.862Z,1012.8320352919999
2023-03-16T03:46:32.041Z,1012.933626656
2023-03-16T03:47:31.794Z,1012.8320352919999
2023-03-16T03:48:31.755Z,1012.8320352919999
2023-03-16T03:49:31.831Z,1012.8320352919999
2023-03-16T03:50:31.724Z,1012.933626656
2023-03-16T03:51:31.766Z,1012.933626656
2023-03-16T03:52:31.759Z,1012.933626656
2023-03-16T03:53:31.757Z,1012.933626656
2023-03-16T03:54:31.724Z,1013.03521802
2023-03-16T03:55:31.771Z,1012.7304439279999
2023-03-16T03:56:31.768Z,1013.1368093839999
2023-03-16T03:57:31.736Z,1013.03521802
2023-03-16T03:58:31.783Z,1012.8320352919999
2023-03-16T03:59:31.771Z,1012.933626656
2023-03-16T04:00:31.769Z,1013.03521802
2023-03-16T04:01:31.752Z,1013.1368093839999
2023-03-16T04:02:31.836Z,1013.03521802
2023-03-16T04:03:31.877Z,1012.8320352919999
2023-03-16T04:04:31.722Z,1012.8320352919999
2023-03-16T04:05:31.744Z,1013.1368093839999
2023-03-16T04:06:31.853Z,1013.03521802
2023-03-16T04:07:31.747Z,1013.1368093839999
2023-03-16T04:08:31.732Z,1012.8320352919999
2023-03-16T04:09:31.708Z,1013.03521802
2023-03-16T04:10:31.710Z,1012.8320352919999
2023-03-16T04:11:31.788Z,1012.933626656
2023-03-16T04:12:32.115Z,1012.933626656
2023-03-16T04:13:31.804Z,1013.1368093839999
2023-03-16T04:14:31.701Z,1013.03521802
2023-03-16T04:15:31.750Z,1013.339992112
2023-03-16T04:16:31.829Z,1013.238400748
2023-03-16T04:17:31.717Z,1013.1368093839999
2023-03-16T04:18:31.733Z,1013.1368093839999
2023-03-16T04:19:31.852Z,1013.339992112
2023-03-16T04:20:31.764Z,1013.339992112
2023-03-16T04:21:31.738Z,1013.1368093839999
2023-03-16T04:22:31.766Z,1013.03521802
2023-03-16T04:23:31.735Z,1013.238400748
2023-03-16T04:24:31.746Z,1013.1368093839999
2023-03-16T04:25:31.695Z,1013.4077196879999
2023-03-16T04:26:31.716Z,1013.1368093839999
2023-03-16T04:27:31.749Z,1012.933626656
2023-03-16T04:28:31.757Z,1013.238400748
2023-03-16T04:29:31.741Z,1013.238400748
2023-03-16T04:30:31.738Z,1013.1368093839999
2023-03-16T04:31:31.757Z,1013.339992112
2023-03-16T04:32:31.802Z,1013.339992112
2023-03-16T04:33:31.774Z,1013.1368093839999
2023-03-16T04:34:31.731Z,1013.238400748
2023-03-16T04:35:31.868Z,1013.238400748
2023-03-16T04:36:31.737Z,1013.238400748
2023-03-16T04:37:31.706Z,1013.4077196879999
2023-03-16T04:38:31.709Z,1013.4077196879999
2023-03-16T04:39:31.865Z,1013.5093110519999
2023-03-16T04:40:31.763Z,1013.339992112
2023-03-16T04:41:31.749Z,1013.339992112
2023-03-16T04:42:32.217Z,1013.238400748
2023-03-16T04:43:31.767Z,1013.4077196879999
2023-03-16T04:44:31.707Z,1013.339992112
2023-03-16T04:45:31.774Z,1013.4077196879999
2023-03-16T04:46:31.780Z,1013.4077196879999
2023-03-16T04:47:31.720Z,1013.238400748
2023-03-16T04:48:31.724Z,1013.5093110519999
2023-03-16T04:49:31.713Z,1013.4077196879999
2023-03-16T04:50:31.731Z,1013.339992112
2023-03-16T04:51:31.837Z,1013.4077196879999
2023-03-16T04:52:31.856Z,1013.5093110519999
2023-03-16T04:53:31.708Z,1013.6109024159999
2023-03-16T04:54:31.785Z,1013.4077196879999
2023-03-16T04:55:31.731Z,1013.5093110519999
2023-03-16T04:56:31.715Z,1013.339992112
2023-03-16T04:57:31.880Z,1013.6109024159999
2023-03-16T04:58:31.741Z,1013.6109024159999
2023-03-16T04:59:31.723Z,1013.6109024159999
2023-03-16T05:00:31.735Z,1013.5093110519999
2023-03-16T05:01:31.846Z,1013.4077196879999
2023-03-16T05:02:31.728Z,1013.7124937799999
2023-03-16T05:03:31.756Z,1013.8140851439999
2023-03-16T05:04:31.745Z,1013.7124937799999
2023-03-16T05:05:31.792Z,1013.5093110519999
2023-03-16T05:06:31.691Z,1013.5093110519999
2023-03-16T05:07:31.753Z,1013.6109024159999
2023-03-16T05:08:31.758Z,1013.6109024159999
2023-03-16T05:09:31.725Z,1013.6109024159999
2023-03-16T05:10:31.692Z,1013.6109024159999
2023-03-16T05:11:31.743Z,1013.7124937799999
2023-03-16T05:12:32.062Z,1013.6109024159999
2023-03-16T05:13:31.773Z,1013.6109024159999
2023-03-16T05:14:31.678Z,1013.6109024159999
2023-03-16T05:15:31.746Z,1013.8140851439999
2023-03-16T05:16:31.718Z,1013.8140851439999
2023-03-16T05:17:31.739Z,1013.6109024159999
2023-03-16T05:18:31.693Z,1014.0172678719999
2023-03-16T05:19:31.771Z,1013.8140851439999
2023-03-16T05:20:31.713Z,1013.8140851439999
2023-03-16T05:21:31.709Z,1013.9156765079999
2023-03-16T05:22:32.112Z,1013.8140851439999
2023-03-16T05:23:31.746Z,1013.8140851439999
2023-03-16T05:24:31.708Z,1013.9156765079999
2023-03-16T05:25:31.721Z,1014.1188592359999
2023-03-16T05:26:31.730Z,1013.9156765079999
2023-03-16T05:27:31.729Z,1014.0172678719999
2023-03-16T05:28:31.715Z,1013.8140851439999
2023-03-16T05:29:31.751Z,1014.2204505999999
2023-03-16T05:30:31.727Z,1014.0172678719999
2023-03-16T05:31:31.797Z,1013.9156765079999
2023-03-16T05:32:32.120Z,1014.0172678719999
2023-03-16T05:33:31.736Z,1014.0172678719999
2023-03-16T05:34:31.713Z,1014.0172678719999
2023-03-16T05:35:31.802Z,1014.0172678719999
2023-03-16T05:36:31.675Z,1014.0172678719999
2023-03-16T05:37:31.700Z,1014.0172678719999
2023-03-16T05:38:31.733Z,1013.9156765079999
2023-03-16T05:39:31.731Z,1014.2204505999999
2023-03-16T05:40:31.732Z,1014.0172678719999
2023-03-16T05:41:31.718Z,1014.2204505999999
2023-03-16T05:42:31.711Z,1014.1188592359999
2023-03-16T05:43:31.808Z,1014.2204505999999
2023-03-16T05:44:31.702Z,1014.2204505999999
2023-03-16T05:45:31.686Z,1014.3220419639999
2023-03-16T05:46:31.759Z,1014.0172678719999
2023-03-16T05:47:31.717Z,1014.0172678719999
2023-03-16T05:48:31.712Z,1014.1188592359999
2023-03-16T05:49:31.748Z,1014.2204505999999
2023-03-16T05:50:31.742Z,1014.0172678719999
2023-03-16T05:51:31.756Z,1014.1188592359999
2023-03-16T05:52:31.742Z,1014.0172678719999
2023-03-16T05:53:31.743Z,1014.2204505999999
2023-03-16T05:54:31.790Z,1013.9156765079999
2023-03-16T05:55:31.704Z,1014.1188592359999
2023-03-16T05:56:31.707Z,1014.0172678719999
2023-03-16T05:57:31.722Z,1014.1188592359999
2023-03-16T05:58:31.755Z,1014.0172678719999
2023-03-16T05:59:31.696Z,1014.3220419639999
2023-03-16T06:00:31.791Z,1014.1188592359999
2023-03-16T06:01:31.727Z,1014.2204505999999
2023-03-16T06:02:32.276Z,1014.3220419639999
2023-03-16T06:03:31.714Z,1014.423633328
2023-03-16T06:04:31.791Z,1014.6268160559999
2023-03-16T06:05:31.739Z,1014.423633328
2023-03-16T06:06:31.725Z,1014.2204505999999
2023-03-16T06:07:31.740Z,1014.3220419639999
2023-03-16T06:08:31.725Z,1014.2204505999999
2023-03-16T06:09:31.724Z,1014.3220419639999
2023-03-16T06:10:31.711Z,1014.423633328
2023-03-16T06:11:31.706Z,1014.423633328
2023-03-16T06:12:31.702Z,1014.423633328
2023-03-16T06:13:31.788Z,1014.5252246919999
2023-03-16T06:14:31.720Z,1014.5252246919999
2023-03-16T06:15:31.714Z,1014.423633328
2023-03-16T06:16:31.740Z,1014.5252246919999
2023-03-16T06:17:31.781Z,1014.5252246919999
2023-03-16T06:18:31.712Z,1014.5252246919999
2023-03-16T06:19:31.696Z,1014.72840742
2023-03-16T06:20:31.742Z,1014.6268160559999
2023-03-16T06:21:31.774Z,1014.6268160559999
2023-03-16T06:22:31.762Z,1014.6268160559999
2023-03-16T06:23:31.715Z,1014.6268160559999
2023-03-16T06:24:31.781Z,1014.72840742
2023-03-16T06:25:31.743Z,1014.6268160559999
2023-03-16T06:26:31.730Z,1014.72840742
2023-03-16T06:27:31.699Z,1014.72840742
2023-03-16T06:28:31.721Z,1014.72840742
2023-03-16T06:29:31.718Z,1014.829998784
2023-03-16T06:30:31.722Z,1014.72840742
2023-03-16T06:31:31.752Z,1014.72840742
2023-03-16T06:32:32.219Z,1014.829998784
2023-03-16T06:33:31.718Z,1014.829998784
2023-03-16T06:34:31.739Z,1014.9315901479999
2023-03-16T06:35:31.765Z,1015.033181512
2023-03-16T06:36:31.714Z,1014.9315901479999
2023-03-16T06:37:31.815Z,1015.23636424
2023-03-16T06:38:31.702Z,1014.829998784
2023-03-16T06:39:31.820Z,1014.9315901479999
2023-03-16T06:40:31.717Z,1014.9315901479999
2023-03-16T06:41:31.751Z,1015.134772876
2023-03-16T06:42:31.748Z,1015.23636424
2023-03-16T06:43:31.740Z,1015.23636424
2023-03-16T06:44:31.740Z,1015.23636424
2023-03-16T06:45:31.737Z,1015.134772876
2023-03-16T06:46:31.707Z,1015.134772876
2023-03-16T06:47:31.724Z,1015.3379556040001
2023-03-16T06:48:31.703Z,1015.3379556040001
2023-03-16T06:49:31.752Z,1015.23636424
2023-03-16T06:50:31.711Z,1015.033181512
2023-03-16T06:51:31.713Z,1015.134772876
2023-03-16T06:52:31.755Z,1015.033181512
2023-03-16T06:53:31.753Z,1015.033181512
2023-03-16T06:54:31.690Z,1015.033181512
2023-03-16T06:55:31.706Z,1015.23636424
2023-03-16T06:56:31.804Z,1015.134772876
2023-03-16T06:57:31.727Z,1015.3379556040001
2023-03-16T06:58:31.711Z,1015.23636424
2023-03-16T06:59:31.712Z,1015.23636424
2023-03-16T07:00:32.127Z,1015.134772876
2023-03-16T07:01:32.368Z,1015.3379556040001
2023-03-16T07:02:48.230Z,1015.3379556040001
2023-03-16T07:03:31.743Z,1015.23636424
2023-03-16T07:04:31.901Z,1015.608865908
2023-03-16T07:05:31.741Z,1015.23636424
2023-03-16T07:06:31.725Z,1015.507274544
2023-03-16T07:07:31.724Z,1015.507274544
2023-03-16T07:08:31.738Z,1015.4395469680001
2023-03-16T07:09:31.783Z,1015.507274544
2023-03-16T07:10:31.787Z,1015.507274544
2023-03-16T07:11:31.721Z,1015.507274544
2023-03-16T07:12:31.761Z,1015.608865908
2023-03-16T07:13:31.716Z,1015.4395469680001
2023-03-16T07:14:31.750Z,1015.4395469680001
2023-03-16T07:15:31.704Z,1015.4395469680001
2023-03-16T07:16:31.774Z,1015.4395469680001
2023-03-16T07:17:31.737Z,1015.608865908
2023-03-16T07:18:31.766Z,1015.7104572719999
2023-03-16T07:19:31.703Z,1015.608865908
2023-03-16T07:20:31.831Z,1015.507274544
2023-03-16T07:21:31.737Z,1015.507274544
2023-03-16T07:22:32.212Z,1015.7104572719999
2023-03-16T07:23:31.712Z,1015.608865908
2023-03-16T07:24:31.753Z,1015.608865908
2023-03-16T07:25:31.750Z,1015.507274544
2023-03-16T07:26:31.752Z,1015.7104572719999
2023-03-16T07:27:31.713Z,1015.7104572719999
2023-03-16T07:28:31.743Z,1015.7104572719999
2023-03-16T07:29:31.757Z,1015.7104572719999
2023-03-16T07:30:31.739Z,1015.812048636
2023-03-16T07:31:31.813Z,1015.7104572719999
2023-03-16T07:32:31.818Z,1015.7104572719999
2023-03-16T07:33:31.736Z,1015.608865908
2023-03-16T07:34:31.700Z,1015.812048636
2023-03-16T07:35:31.772Z,1015.91364
2023-03-16T07:36:31.730Z,1016.0152313639999
2023-03-16T07:37:31.729Z,1015.812048636
2023-03-16T07:38:31.715Z,1016.0152313639999
2023-03-16T07:39:31.717Z,1016.116822728
2023-03-16T07:40:31.889Z,1016.218414092
2023-03-16T07:41:32.724Z,1016.116822728
2023-03-16T07:42:32.217Z,1016.0152313639999
2023-03-16T07:43:31.712Z,1016.116822728
2023-03-16T07:44:31.773Z,1016.0152313639999
2023-03-16T07:45:31.755Z,1016.0152313639999
2023-03-16T07:46:31.810Z,1016.116822728
2023-03-16T07:47:31.753Z,1016.0152313639999
2023-03-16T07:48:31.704Z,1016.116822728
2023-03-16T07:49:31.758Z,1016.116822728
2023-03-16T07:50:31.814Z,1016.218414092
2023-03-16T07:51:31.757Z,1016.116822728
2023-03-16T07:52:31.723Z,1015.812048636
2023-03-16T07:53:31.776Z,1016.116822728
2023-03-16T07:54:31.711Z,1015.91364
2023-03-16T07:55:31.725Z,1015.91364
2023-03-16T07:56:45.877Z,1015.91364
2023-03-16T07:57:31.761Z,1015.91364
2023-03-16T07:58:31.752Z,1016.116822728
2023-03-16T07:59:31.712Z,1016.116822728
2023-03-16T08:00:32.044Z,1016.116822728
2023-03-16T08:01:31.717Z,1016.116822728
2023-03-16T08:02:32.505Z,1016.0152313639999
2023-03-16T08:03:31.833Z,1016.218414092
2023-03-16T08:04:31.837Z,1016.116822728
2023-03-16T08:05:31.707Z,1016.116822728
2023-03-16T08:06:31.769Z,1016.218414092
2023-03-16T08:07:31.693Z,1016.218414092
2023-03-16T08:08:31.723Z,1016.116822728
2023-03-16T08:09:31.773Z,1016.116822728
2023-03-16T08:10:32.070Z,1016.218414092
2023-03-16T08:11:31.786Z,1016.116822728
2023-03-16T08:12:31.773Z,1016.3200054560001
2023-03-16T08:13:31.813Z,1016.42159682
2023-03-16T08:14:31.714Z,1016.42159682
2023-03-16T08:15:31.810Z,1016.218414092
2023-03-16T08:16:31.857Z,1016.218414092
2023-03-16T08:17:31.710Z,1016.3200054560001
2023-03-16T08:18:31.723Z,1016.523188184
2023-03-16T08:19:31.742Z,1016.42159682
2023-03-16T08:20:32.337Z,1016.3200054560001
2023-03-16T08:21:31.782Z,1016.523188184
2023-03-16T08:22:32.336Z,1016.42159682
2023-03-16T08:23:31.757Z,1016.42159682
2023-03-16T08:24:31.719Z,1016.42159682
2023-03-16T08:25:31.787Z,1016.523188184
2023-03-16T08:26:31.718Z,1016.42159682
2023-03-16T08:27:31.821Z,1016.6247795480001
2023-03-16T08:28:31.777Z,1016.523188184
2023-03-16T08:29:31.712Z,1016.523188184
2023-03-16T08:30:32.156Z,1016.42159682
2023-03-16T08:31:31.840Z,1016.523188184
2023-03-16T08:32:31.771Z,1016.42159682
2023-03-16T08:33:31.722Z,1016.6247795480001
2023-03-16T08:34:31.710Z,1016.42159682
2023-03-16T08:35:31.729Z,1016.42159682
2023-03-16T08:36:31.726Z,1016.523188184
2023-03-16T08:37:31.710Z,1016.523188184
2023-03-16T08:38:31.718Z,1016.42159682
2023-03-16T08:39:31.780Z,1016.523188184
2023-03-16T08:40:32.187Z,1016.726370912
2023-03-16T08:41:31.712Z,1016.726370912
2023-03-16T08:42:31.711Z,1016.42159682
2023-03-16T08:43:31.724Z,1016.3200054560001
2023-03-16T08:44:31.881Z,1016.6247795480001
2023-03-16T08:45:31.714Z,1016.523188184
2023-03-16T08:46:31.774Z,1016.523188184
2023-03-16T08:47:31.736Z,1016.6247795480001
2023-03-16T08:48:31.703Z,1016.42159682
2023-03-16T08:49:31.714Z,1016.6247795480001
2023-03-16T08:50:31.834Z,1016.726370912
2023-03-16T08:51:31.735Z,1016.6247795480001
2023-03-16T08:52:31.709Z,1016.6247795480001
2023-03-16T08:53:31.712Z,1016.827962276
2023-03-16T08:54:31.774Z,1016.6247795480001
2023-03-16T08:55:31.740Z,1016.6247795480001
2023-03-16T08:56:31.712Z,1016.726370912
2023-03-16T08:57:31.743Z,1016.827962276
2023-03-16T08:58:31.746Z,1016.827962276
2023-03-16T08:59:31.740Z,1016.827962276
2023-03-16T09:00:31.697Z,1016.9295536400001
2023-03-16T09:01:31.736Z,1016.726370912
2023-03-16T09:02:32.299Z,1016.827962276
2023-03-16T09:03:31.685Z,1017.031145004
2023-03-16T09:04:31.849Z,1016.726370912
2023-03-16T09:05:31.714Z,1016.726370912
2023-03-16T09:06:31.753Z,1016.9295536400001
2023-03-16T09:07:31.735Z,1016.9295536400001
2023-03-16T09:08:31.706Z,1016.827962276
2023-03-16T09:09:31.737Z,1017.031145004
2023-03-16T09:10:31.942Z,1016.9295536400001
2023-03-16T09:11:31.744Z,1017.2343277320001
2023-03-16T09:12:32.112Z,1017.031145004
2023-03-16T09:13:31.683Z,1017.031145004
2023-03-16T09:14:31.813Z,1017.132736368
2023-03-16T09:15:31.732Z,1017.132736368
2023-03-16T09:16:31.770Z,1017.132736368
2023-03-16T09:17:31.728Z,1017.132736368
2023-03-16T09:18:31.727Z,1017.132736368
2023-03-16T09:19:47.906Z,1017.2343277320001
2023-03-16T09:20:33.306Z,1017.2343277320001
2023-03-16T09:21:31.655Z,1016.9295536400001
2023-03-16T09:22:31.733Z,1017.2343277320001
2023-03-16T09:23:31.698Z,1017.132736368
2023-03-16T09:24:31.946Z,1017.2343277320001
2023-03-16T09:25:32.147Z,1017.132736368
2023-03-16T09:26:31.788Z,1017.2343277320001
2023-03-16T09:27:31.683Z,1017.132736368
2023-03-16T09:28:31.761Z,1017.2343277320001
2023-03-16T09:29:31.729Z,1017.43751046
2023-03-16T09:30:32.077Z,1017.2343277320001